createdAt,value
2023-09-08T00:01:15.630Z,20.81
2023-09-08T00:03:42.708Z,20.69
2023-09-08T00:06:09.702Z,20.55
2023-09-08T00:08:36.923Z,20.55
2023-09-08T00:11:04.190Z,20.56
2023-09-08T00:13:31.347Z,20.57
2023-09-08T00:15:58.403Z,20.54
2023-09-08T00:18:25.344Z,20.47
2023-09-08T00:20:52.339Z,20.50
2023-09-08T00:23:19.260Z,20.44
2023-09-08T00:25:46.293Z,20.38
2023-09-08T00:28:13.468Z,20.38
2023-09-08T00:30:40.618Z,20.42
2023-09-08T00:33:10.175Z,20.35
2023-09-08T00:35:37.397Z,20.38
2023-09-08T00:38:04.679Z,20.37
2023-09-08T00:40:37.995Z,20.42
2023-09-08T00:43:08.342Z,20.31
2023-09-08T00:45:41.518Z,20.36
2023-09-08T00:48:09.250Z,20.32
2023-09-08T00:50:37.794Z,20.21
2023-09-08T00:53:07.083Z,20.19
2023-09-08T00:55:34.221Z,20.21
2023-09-08T00:58:02.113Z,20.17
2023-09-08T01:00:29.394Z,20.18
2023-09-08T01:02:56.498Z,20.12
2023-09-08T01:05:23.588Z,20.12
2023-09-08T01:07:53.105Z,20.09
2023-09-08T01:10:20.419Z,20.08
2023-09-08T01:12:47.632Z,20.03
2023-09-08T01:15:14.733Z,19.99
2023-09-08T01:17:41.863Z,19.98
2023-09-08T01:20:22.763Z,19.93
2023-09-08T01:23:35.778Z,19.88
2023-09-08T01:26:22.799Z,19.83
2023-09-08T01:28:51.399Z,19.82
2023-09-08T01:31:19.289Z,19.83
2023-09-08T01:33:46.925Z,19.86
2023-09-08T01:36:15.308Z,19.79
2023-09-08T01:38:42.328Z,19.74
2023-09-08T01:41:09.288Z,19.75
2023-09-08T01:43:36.358Z,19.75
2023-09-08T01:46:03.490Z,19.79
2023-09-08T01:48:30.476Z,19.77
2023-09-08T01:50:58.493Z,19.71
2023-09-08T01:53:25.443Z,19.65
2023-09-08T01:55:52.461Z,19.63
2023-09-08T01:59:18.114Z,19.65
2023-09-08T02:01:45.217Z,19.77
2023-09-08T02:04:12.285Z,19.79
2023-09-08T02:06:39.258Z,19.76
2023-09-08T02:09:06.200Z,19.68
2023-09-08T02:11:33.165Z,19.64
2023-09-08T02:14:00.240Z,19.63
2023-09-08T02:16:27.294Z,19.60
2023-09-08T02:18:54.397Z,19.62
2023-09-08T02:21:22.702Z,19.72
2023-09-08T02:23:49.693Z,19.70
2023-09-08T02:26:17.039Z,19.81
2023-09-08T02:28:44.445Z,19.64
2023-09-08T02:31:11.813Z,19.60
2023-09-08T02:33:39.099Z,19.53
2023-09-08T02:36:07.126Z,19.48
2023-09-08T02:38:35.854Z,19.44
2023-09-08T02:41:03.099Z,19.48
2023-09-08T02:43:30.725Z,19.42
2023-09-08T02:45:58.621Z,19.35
2023-09-08T02:48:26.235Z,19.26
2023-09-08T02:50:55.227Z,19.18
2023-09-08T02:53:22.445Z,19.13
2023-09-08T02:55:50.510Z,19.08
2023-09-08T02:58:17.506Z,18.98
2023-09-08T03:00:44.556Z,18.89
2023-09-08T03:03:11.519Z,18.83
2023-09-08T03:05:38.736Z,18.79
2023-09-08T03:08:06.537Z,18.80
2023-09-08T03:10:35.662Z,18.81
2023-09-08T03:13:04.722Z,18.82
2023-09-08T03:15:31.814Z,18.87
2023-09-08T03:18:00.381Z,18.86
2023-09-08T03:20:27.727Z,18.84
2023-09-08T03:22:56.250Z,18.78
2023-09-08T03:25:23.240Z,18.74
2023-09-08T03:27:50.328Z,18.77
2023-09-08T03:30:17.389Z,18.74
2023-09-08T03:32:44.561Z,18.69
2023-09-08T03:35:11.622Z,18.62
2023-09-08T03:37:39.477Z,18.53
2023-09-08T03:40:08.168Z,18.47
2023-09-08T03:42:36.075Z,18.45
2023-09-08T03:45:03.657Z,18.44
2023-09-08T03:47:30.766Z,18.38
2023-09-08T03:49:57.936Z,18.32
2023-09-08T03:52:25.322Z,18.31
2023-09-08T03:54:52.232Z,18.30
2023-09-08T03:57:19.388Z,18.29
2023-09-08T03:59:46.414Z,18.32
2023-09-08T04:02:13.654Z,18.32
2023-09-08T04:04:40.712Z,18.34
2023-09-08T04:07:09.183Z,18.32
2023-09-08T04:09:36.197Z,18.32
2023-09-08T04:12:03.401Z,18.34
2023-09-08T04:14:31.715Z,18.31
2023-09-08T04:16:58.688Z,18.30
2023-09-08T04:19:25.829Z,18.29
2023-09-08T04:21:52.797Z,18.28
2023-09-08T04:24:21.323Z,18.26
2023-09-08T04:26:48.370Z,18.26
2023-09-08T04:29:15.369Z,18.24
2023-09-08T04:31:42.373Z,18.31
2023-09-08T04:34:09.471Z,18.37
2023-09-08T04:36:36.562Z,18.38
2023-09-08T04:39:03.754Z,18.42
2023-09-08T04:41:30.825Z,18.46
2023-09-08T04:43:59.422Z,18.50
2023-09-08T04:46:26.709Z,18.50
2023-09-08T04:48:53.953Z,18.49
2023-09-08T04:51:23.196Z,18.55
2023-09-08T04:53:50.621Z,18.63
2023-09-08T04:56:17.718Z,18.72
2023-09-08T04:58:45.092Z,18.78
2023-09-08T05:01:13.572Z,18.84
2023-09-08T05:03:41.041Z,18.90
2023-09-08T05:06:09.271Z,18.93
2023-09-08T05:08:36.572Z,18.98
2023-09-08T05:11:04.455Z,19.01
2023-09-08T05:13:32.532Z,19.08
2023-09-08T05:16:12.508Z,19.12
2023-09-08T05:18:44.556Z,19.17
2023-09-08T05:21:11.868Z,19.24
2023-09-08T05:23:39.025Z,19.30
2023-09-08T05:26:06.445Z,19.36
2023-09-08T05:28:37.169Z,19.45
2023-09-08T05:31:06.831Z,19.51
2023-09-08T05:33:35.345Z,19.60
2023-09-08T05:36:03.457Z,19.66
2023-09-08T05:38:30.656Z,19.68
2023-09-08T05:40:57.757Z,19.75
2023-09-08T05:43:26.895Z,19.81
2023-09-08T05:45:55.377Z,19.81
2023-09-08T05:48:22.428Z,19.86
2023-09-08T05:50:49.725Z,19.86
2023-09-08T05:53:16.960Z,19.89
2023-09-08T05:55:44.831Z,19.93
2023-09-08T05:58:12.153Z,19.96
2023-09-08T06:00:39.386Z,19.98
2023-09-08T06:03:07.293Z,20.03
2023-09-08T06:05:34.733Z,20.10
2023-09-08T06:08:07.059Z,20.20
2023-09-08T06:10:38.364Z,20.29
2023-09-08T06:13:06.133Z,20.33
2023-09-08T06:15:33.451Z,20.40
2023-09-08T06:18:00.837Z,20.49
2023-09-08T06:20:28.402Z,20.51
2023-09-08T06:22:56.122Z,20.53
2023-09-08T06:25:23.560Z,20.70
2023-09-08T06:27:50.676Z,20.76
2023-09-08T06:30:19.528Z,20.77
2023-09-08T06:32:46.900Z,20.78
2023-09-08T06:35:14.168Z,20.89
2023-09-08T06:37:41.251Z,21.04
2023-09-08T06:40:09.421Z,21.12
2023-09-08T06:42:36.458Z,21.19
2023-09-08T06:45:32.530Z,21.34
2023-09-08T06:48:01.358Z,21.37
2023-09-08T06:50:30.618Z,21.46
2023-09-08T06:52:57.949Z,21.63
2023-09-08T06:55:25.096Z,21.66
2023-09-08T06:57:52.344Z,21.84
2023-09-08T07:00:21.697Z,21.82
2023-09-08T07:02:50.811Z,21.85
2023-09-08T07:05:18.817Z,21.88
2023-09-08T07:07:50.716Z,21.90
2023-09-08T07:10:18.138Z,21.97
2023-09-08T07:12:45.482Z,22.02
2023-09-08T07:15:12.525Z,22.14
2023-09-08T07:17:39.574Z,22.27
2023-09-08T07:20:07.791Z,22.37
2023-09-08T07:22:35.037Z,22.41
2023-09-08T07:25:02.119Z,22.42
2023-09-08T07:27:29.297Z,22.46
2023-09-08T07:29:56.767Z,22.58
2023-09-08T07:32:26.255Z,22.66
2023-09-08T07:34:57.096Z,22.72
2023-09-08T07:37:26.596Z,22.84
2023-09-08T07:39:53.633Z,22.87
2023-09-08T07:42:21.040Z,23.06
2023-09-08T07:44:49.472Z,23.25
2023-09-08T07:47:16.504Z,23.29
2023-09-08T07:49:47.937Z,23.48
2023-09-08T07:52:15.114Z,23.53
2023-09-08T07:54:42.135Z,23.47
2023-09-08T07:57:09.301Z,23.54
2023-09-08T07:59:38.004Z,23.61
2023-09-08T08:02:05.290Z,23.75
2023-09-08T08:04:32.422Z,23.87
2023-09-08T08:06:59.623Z,24.07
2023-09-08T08:09:26.765Z,24.12
2023-09-08T08:11:53.889Z,24.18
2023-09-08T08:14:20.936Z,24.44
2023-09-08T08:16:48.119Z,24.56
2023-09-08T08:19:15.143Z,24.85
2023-09-08T08:21:43.615Z,24.66
2023-09-08T08:24:11.681Z,24.61
2023-09-08T08:26:38.722Z,24.63
2023-09-08T08:29:05.764Z,24.87
2023-09-08T08:31:34.616Z,25.08
2023-09-08T08:34:01.648Z,25.29
2023-09-08T08:36:28.661Z,25.45
2023-09-08T08:38:55.678Z,25.73
2023-09-08T08:41:22.633Z,25.74
2023-09-08T08:43:51.791Z,25.81
2023-09-08T08:46:19.828Z,25.85
2023-09-08T08:48:47.971Z,25.82
2023-09-08T08:51:19.245Z,26.08
2023-09-08T08:53:46.353Z,26.05
2023-09-08T08:56:16.742Z,25.96
2023-09-08T08:58:43.805Z,25.95
2023-09-08T09:01:12.675Z,26.00
2023-09-08T09:03:41.577Z,26.07
2023-09-08T09:06:08.826Z,26.00
2023-09-08T09:08:38.565Z,25.90
2023-09-08T09:11:05.646Z,25.75
2023-09-08T09:13:32.616Z,25.68
2023-09-08T09:16:01.549Z,25.78
2023-09-08T09:18:31.492Z,25.78
2023-09-08T09:21:02.547Z,25.77
2023-09-08T09:23:34.193Z,25.79
2023-09-08T09:26:05.284Z,25.77
2023-09-08T09:28:32.925Z,25.73
2023-09-08T09:31:00.776Z,25.82
2023-09-08T09:33:29.435Z,26.04
2023-09-08T09:35:56.551Z,26.26
2023-09-08T09:38:23.666Z,26.25
2023-09-08T09:40:51.028Z,26.20
2023-09-08T09:43:21.797Z,26.13
2023-09-08T09:45:48.986Z,26.13
2023-09-08T09:48:16.917Z,26.00
2023-09-08T09:50:46.649Z,26.21
2023-09-08T09:53:16.051Z,25.95
2023-09-08T09:55:45.359Z,25.76
2023-09-08T09:58:13.680Z,25.84
2023-09-08T10:00:42.437Z,25.96
2023-09-08T10:03:10.629Z,26.14
2023-09-08T10:05:38.712Z,26.24
2023-09-08T10:08:06.590Z,26.39
2023-09-08T10:10:35.808Z,26.63
2023-09-08T10:13:07.679Z,26.70
2023-09-08T10:15:35.014Z,26.53
2023-09-08T10:18:05.875Z,26.47
2023-09-08T10:20:34.662Z,26.48
2023-09-08T10:23:23.948Z,26.77
2023-09-08T10:25:58.090Z,26.96
2023-09-08T10:28:26.175Z,27.03
2023-09-08T10:30:54.544Z,27.11
2023-09-08T10:33:22.269Z,27.03
2023-09-08T10:35:49.495Z,26.95
2023-09-08T10:38:34.278Z,26.90
2023-09-08T10:41:37.139Z,27.10
2023-09-08T10:44:08.960Z,27.30
2023-09-08T10:46:38.088Z,27.44
2023-09-08T10:49:08.433Z,27.53
2023-09-08T10:51:36.594Z,27.78
2023-09-08T10:54:04.656Z,27.96
2023-09-08T10:56:52.429Z,28.36
2023-09-08T10:59:19.470Z,28.70
2023-09-08T11:01:48.827Z,28.78
2023-09-08T11:04:20.480Z,29.03
2023-09-08T11:06:47.698Z,29.01
2023-09-08T11:09:15.469Z,28.96
2023-09-08T11:11:43.523Z,29.23
2023-09-08T11:14:10.499Z,29.60
2023-09-08T11:16:37.637Z,29.68
2023-09-08T11:19:06.290Z,29.73
2023-09-08T11:21:36.830Z,29.78
2023-09-08T11:24:06.068Z,29.83
2023-09-08T11:26:36.125Z,29.93
2023-09-08T11:29:04.255Z,30.12
2023-09-08T11:31:31.503Z,30.41
2023-09-08T11:34:00.804Z,30.56
2023-09-08T11:36:27.840Z,30.32
2023-09-08T11:38:55.059Z,30.13
2023-09-08T11:41:25.120Z,30.19
2023-09-08T11:43:53.307Z,30.33
2023-09-08T11:46:20.952Z,30.42
2023-09-08T11:48:48.308Z,30.72
2023-09-08T11:51:15.382Z,30.85
2023-09-08T11:53:42.689Z,31.11
2023-09-08T11:56:09.905Z,31.55
2023-09-08T11:58:37.662Z,31.86
2023-09-08T12:01:05.927Z,32.04
2023-09-08T12:03:33.238Z,32.03
2023-09-08T12:06:01.458Z,32.20
2023-09-08T12:08:28.596Z,32.45
2023-09-08T12:10:55.770Z,32.58
2023-09-08T12:13:24.427Z,32.59
2023-09-08T12:15:51.608Z,32.73
2023-09-08T12:18:18.759Z,32.87
2023-09-08T12:20:46.282Z,33.03
2023-09-08T12:23:23.457Z,32.83
2023-09-08T12:25:53.149Z,33.00
2023-09-08T12:28:24.938Z,33.11
2023-09-08T12:30:52.483Z,33.17
2023-09-08T12:33:22.316Z,33.39
2023-09-08T12:35:54.828Z,33.74
2023-09-08T12:38:21.851Z,33.96
2023-09-08T12:40:49.486Z,34.13
2023-09-08T12:43:26.133Z,33.62
2023-09-08T12:45:58.742Z,33.54
2023-09-08T12:48:26.161Z,33.44
2023-09-08T12:50:54.742Z,33.51
2023-09-08T12:53:22.996Z,33.37
2023-09-08T12:55:50.380Z,33.02
2023-09-08T12:58:18.432Z,32.54
2023-09-08T13:00:45.850Z,32.07
2023-09-08T13:03:13.136Z,31.75
2023-09-08T13:05:40.689Z,31.90
2023-09-08T13:08:08.251Z,31.89
2023-09-08T13:10:35.350Z,31.89
2023-09-08T13:13:02.493Z,31.84
2023-09-08T13:15:32.689Z,31.77
2023-09-08T13:17:59.852Z,32.07
2023-09-08T13:20:27.003Z,32.33
2023-09-08T13:22:54.157Z,32.61
2023-09-08T13:25:21.404Z,32.56
2023-09-08T13:27:49.350Z,32.45
2023-09-08T13:30:17.386Z,32.00
2023-09-08T13:32:45.942Z,31.67
2023-09-08T13:35:13.401Z,31.66
2023-09-08T13:37:40.522Z,31.85
2023-09-08T13:40:09.293Z,31.94
2023-09-08T13:42:37.079Z,32.21
2023-09-08T13:45:05.038Z,32.46
2023-09-08T13:47:32.999Z,32.76
2023-09-08T13:50:03.070Z,32.98
2023-09-08T13:52:33.353Z,32.88
2023-09-08T13:57:35.107Z,32.76
2023-09-08T14:00:04.812Z,32.67
2023-09-08T14:02:43.074Z,32.76
2023-09-08T14:05:11.530Z,32.88
2023-09-08T14:07:46.061Z,32.97
2023-09-08T14:10:27.298Z,32.76
2023-09-08T14:12:57.539Z,32.64
2023-09-08T14:15:24.699Z,32.82
2023-09-08T14:17:51.769Z,32.80
2023-09-08T14:20:18.698Z,32.64
2023-09-08T14:22:46.142Z,32.79
2023-09-08T14:25:14.448Z,32.78
2023-09-08T14:27:41.501Z,32.48
2023-09-08T14:30:08.808Z,32.22
2023-09-08T14:32:35.856Z,31.91
2023-09-08T14:35:03.032Z,31.73
2023-09-08T14:37:29.986Z,31.82
2023-09-08T14:39:56.947Z,31.93
2023-09-08T14:42:24.033Z,31.90
2023-09-08T14:44:52.823Z,31.81
2023-09-08T14:47:19.997Z,31.74
2023-09-08T14:49:47.648Z,31.82
2023-09-08T14:52:14.732Z,31.96
2023-09-08T14:54:42.358Z,31.77
2023-09-08T14:57:11.500Z,31.71
2023-09-08T14:59:38.479Z,31.43
2023-09-08T15:02:07.609Z,31.30
2023-09-08T15:04:35.808Z,31.43
2023-09-08T15:07:02.973Z,31.40
2023-09-08T15:09:29.943Z,31.46
2023-09-08T15:11:58.453Z,31.53
2023-09-08T15:14:27.788Z,31.60
2023-09-08T15:16:54.787Z,31.81
2023-09-08T15:19:21.793Z,31.94
2023-09-08T15:21:48.714Z,32.15
2023-09-08T15:24:19.535Z,32.46
2023-09-08T15:26:47.380Z,33.16
2023-09-08T15:29:14.964Z,33.48
2023-09-08T15:31:42.093Z,33.47
2023-09-08T15:34:09.085Z,33.69
2023-09-08T15:36:36.018Z,34.04
2023-09-08T15:39:05.165Z,33.66
2023-09-08T15:41:32.324Z,33.24
2023-09-08T15:43:59.276Z,33.08
2023-09-08T15:46:31.454Z,33.73
2023-09-08T15:48:58.448Z,34.49
2023-09-08T15:51:25.578Z,34.37
2023-09-08T15:53:54.708Z,33.67
2023-09-08T15:56:21.653Z,32.86
2023-09-08T15:58:52.968Z,32.44
2023-09-08T16:01:20.058Z,32.77
2023-09-08T16:03:47.748Z,33.84
2023-09-08T16:06:14.925Z,34.43
2023-09-08T16:08:41.883Z,35.03
2023-09-08T16:11:09.145Z,35.37
2023-09-08T16:13:36.348Z,35.17
2023-09-08T16:16:04.119Z,34.64
2023-09-08T16:18:34.497Z,33.97
2023-09-08T16:21:01.473Z,33.50
2023-09-08T16:23:30.858Z,33.37
2023-09-08T16:25:58.018Z,33.37
2023-09-08T16:28:25.253Z,33.33
2023-09-08T16:30:55.446Z,33.09
2023-09-08T16:33:22.523Z,32.81
2023-09-08T16:35:49.472Z,32.27
2023-09-08T16:38:16.454Z,31.74
2023-09-08T16:40:48.324Z,31.22
2023-09-08T16:43:21.172Z,30.67
2023-09-08T16:45:50.498Z,30.17
2023-09-08T16:48:17.682Z,29.67
2023-09-08T16:50:44.685Z,29.27
2023-09-08T16:53:12.736Z,28.90
2023-09-08T16:55:39.683Z,28.62
2023-09-08T16:58:06.705Z,28.30
2023-09-08T17:00:34.304Z,28.03
2023-09-08T17:03:01.619Z,27.71
2023-09-08T17:05:28.768Z,27.43
2023-09-08T17:07:57.899Z,27.28
2023-09-08T17:10:25.485Z,27.11
2023-09-08T17:12:52.669Z,26.96
2023-09-08T17:15:19.796Z,26.85
2023-09-08T17:17:46.933Z,26.68
2023-09-08T17:20:17.740Z,26.48
2023-09-08T17:22:48.862Z,26.32
2023-09-08T17:25:16.041Z,26.15
2023-09-08T17:27:44.708Z,26.02
2023-09-08T17:30:12.193Z,25.87
2023-09-08T17:32:39.179Z,25.76
2023-09-08T17:35:06.873Z,25.60
2023-09-08T17:37:34.369Z,25.37
2023-09-08T17:40:01.287Z,25.20
2023-09-08T17:42:28.268Z,24.99
2023-09-08T17:44:55.275Z,24.85
2023-09-08T17:47:22.267Z,24.77
2023-09-08T17:49:49.267Z,24.74
2023-09-08T17:52:16.339Z,24.67
2023-09-08T17:54:43.474Z,24.52
2023-09-08T17:57:10.514Z,24.47
2023-09-08T17:59:37.461Z,24.37
2023-09-08T18:02:06.169Z,24.33
2023-09-08T18:04:35.767Z,24.31
2023-09-08T18:07:04.705Z,24.24
2023-09-08T18:09:31.852Z,24.17
2023-09-08T18:11:58.822Z,24.13
2023-09-08T18:14:25.905Z,24.07
2023-09-08T18:16:53.637Z,23.92
2023-09-08T18:19:20.743Z,23.84
2023-09-08T18:21:47.738Z,23.82
2023-09-08T18:24:14.732Z,23.72
2023-09-08T18:26:41.787Z,23.64
2023-09-08T18:29:08.864Z,23.59
2023-09-08T18:31:36.118Z,23.50
2023-09-08T18:34:03.166Z,23.47
2023-09-08T18:36:30.632Z,23.40
2023-09-08T18:38:57.631Z,23.32
2023-09-08T18:41:24.661Z,23.24
2023-09-08T18:43:51.724Z,23.18
2023-09-08T18:46:18.939Z,23.12
2023-09-08T18:48:46.664Z,23.16
2023-09-08T18:51:14.077Z,23.13
2023-09-08T18:53:41.308Z,23.05
2023-09-08T18:56:08.353Z,23.04
2023-09-08T18:58:37.540Z,23.03
2023-09-08T19:01:05.799Z,23.05
2023-09-08T19:03:33.956Z,23.06
2023-09-08T19:06:01.096Z,23.02
2023-09-08T19:08:29.052Z,23.00
2023-09-08T19:10:57.715Z,22.99
2023-09-08T19:13:24.751Z,22.96
2023-09-08T19:15:52.007Z,22.97
2023-09-08T19:18:19.846Z,22.94
2023-09-08T19:20:47.243Z,22.94
2023-09-08T19:23:14.280Z,22.92
2023-09-08T19:25:43.385Z,22.88
2023-09-08T19:28:10.628Z,22.88
2023-09-08T19:30:37.695Z,22.85
2023-09-08T19:33:05.166Z,22.83
2023-09-08T19:35:36.133Z,22.77
2023-09-08T19:38:03.604Z,22.72
2023-09-08T19:40:30.709Z,22.71
2023-09-08T19:42:57.702Z,22.69
2023-09-08T19:45:25.387Z,22.69
2023-09-08T19:47:52.571Z,22.69
2023-09-08T19:50:19.800Z,22.71
2023-09-08T19:52:46.811Z,22.71
2023-09-08T19:55:13.908Z,22.62
2023-09-08T19:57:41.067Z,22.57
2023-09-08T20:00:09.335Z,22.54
2023-09-08T20:02:43.498Z,22.42
2023-09-08T20:05:11.404Z,22.20
2023-09-08T20:07:40.366Z,21.96
2023-09-08T20:10:10.436Z,21.78
2023-09-08T20:12:39.513Z,21.59
2023-09-08T20:15:07.154Z,21.43
2023-09-08T20:17:34.320Z,21.35
2023-09-08T20:20:01.423Z,21.37
2023-09-08T20:22:28.685Z,21.45
2023-09-08T20:24:55.753Z,21.50
2023-09-08T20:27:22.704Z,21.53
2023-09-08T20:29:53.723Z,21.54
2023-09-08T20:32:20.795Z,21.57
2023-09-08T20:34:47.710Z,21.60
2023-09-08T20:37:14.682Z,21.61
2023-09-08T20:39:41.728Z,21.72
2023-09-08T20:42:10.509Z,21.74
2023-09-08T20:44:37.478Z,21.69
2023-09-08T20:47:05.105Z,21.66
2023-09-08T20:49:32.055Z,21.64
2023-09-08T20:51:59.176Z,21.65
2023-09-08T20:54:26.256Z,21.63
2023-09-08T20:56:54.633Z,21.76
2023-09-08T20:59:24.488Z,21.69
2023-09-08T21:01:53.261Z,21.61
2023-09-08T21:04:20.815Z,21.62
2023-09-08T21:06:47.745Z,21.61
2023-09-08T21:09:15.003Z,21.76
2023-09-08T21:11:42.152Z,21.64
2023-09-08T21:14:10.051Z,21.51
2023-09-08T21:16:37.050Z,21.43
2023-09-08T21:19:04.299Z,21.41
2023-09-08T21:21:31.269Z,21.34
2023-09-08T21:23:58.208Z,21.31
2023-09-08T21:26:25.212Z,21.36
2023-09-08T21:28:52.165Z,21.44
2023-09-08T21:31:19.205Z,21.35
2023-09-08T21:33:47.372Z,21.29
2023-09-08T21:36:17.160Z,21.31
2023-09-08T21:38:44.235Z,21.35
2023-09-08T21:41:11.747Z,21.20
2023-09-08T21:43:39.720Z,21.13
2023-09-08T21:46:08.634Z,21.05
2023-09-08T21:48:37.158Z,21.01
2023-09-08T21:51:04.719Z,20.95
2023-09-08T21:53:32.026Z,20.99
2023-09-08T21:55:58.999Z,21.03
2023-09-08T21:58:27.635Z,21.00
2023-09-08T22:00:57.975Z,20.96
2023-09-08T22:03:25.186Z,20.83
2023-09-08T22:05:52.348Z,20.81
2023-09-08T22:08:20.306Z,20.83
2023-09-08T22:10:47.183Z,20.83
2023-09-08T22:13:15.342Z,20.84
2023-09-08T22:15:42.402Z,20.76
2023-09-08T22:18:09.499Z,20.81
2023-09-08T22:20:36.632Z,20.74
2023-09-08T22:23:03.829Z,20.83
2023-09-08T22:25:33.477Z,20.85
2023-09-08T22:28:03.792Z,20.70
2023-09-08T22:30:30.702Z,20.76
2023-09-08T22:32:57.778Z,20.71
2023-09-08T22:35:24.920Z,20.73
2023-09-08T22:37:52.931Z,20.57
2023-09-08T22:40:20.130Z,20.58
2023-09-08T22:42:47.127Z,20.65
2023-09-08T22:45:14.275Z,20.60
2023-09-08T22:47:41.345Z,20.54
2023-09-08T22:50:11.044Z,20.60
2023-09-08T22:52:41.319Z,20.50
2023-09-08T22:55:23.372Z,20.45
2023-09-08T22:57:52.622Z,20.33
2023-09-08T23:00:19.977Z,20.29
2023-09-08T23:02:49.975Z,20.39
2023-09-08T23:05:17.726Z,20.38
2023-09-08T23:07:45.556Z,20.41
2023-09-08T23:10:12.876Z,20.35
2023-09-08T23:12:40.082Z,20.29
2023-09-08T23:15:08.681Z,20.10
2023-09-08T23:17:35.808Z,19.92
2023-09-08T23:20:16.371Z,20.05
2023-09-08T23:22:44.751Z,19.99
2023-09-08T23:25:11.909Z,19.84
2023-09-08T23:27:38.952Z,19.76
2023-09-08T23:30:07.424Z,19.84
2023-09-08T23:32:34.490Z,19.80
2023-09-08T23:35:02.006Z,19.78
2023-09-08T23:37:28.982Z,19.92
2023-09-08T23:39:55.920Z,19.74
2023-09-08T23:42:23.078Z,19.70
2023-09-08T23:44:50.069Z,19.65
2023-09-08T23:47:17.135Z,19.59
2023-09-08T23:49:44.490Z,19.57
2023-09-08T23:52:11.396Z,19.68
2023-09-08T23:54:38.337Z,19.61
2023-09-08T23:57:05.779Z,19.61
2023-09-08T23:59:32.945Z,19.57
